Time;durP1;ratioP1;P1;durP2;ratioP2;P2;SDS_P1;SDS_P2;PMS_P1;PMS_P2;Temp;Humidity;BMP_temperature;BMP_pressure;BME280_temperature;BME280_humidity;BME280_pressure;Samples;Min_cycle;Max_cycle;Signal;HPM_P1;HPM_P2
2024/03/09 00:00:25;;;;;;;42.33;14.55;;;-0.60;100.00;;;;;;5044454;28;20045;-76
2024/03/09 00:02:54;;;;;;;41.25;13.90;;;-0.70;100.00;;;;;;5043892;28;20080;-76
2024/03/09 00:05:26;;;;;;;41.40;14.02;;;-0.70;100.00;;;;;;5022632;28;20603;-76
2024/03/09 00:07:55;;;;;;;41.97;13.13;;;-0.70;100.00;;;;;;5044632;28;20255;-76
2024/03/09 00:10:23;;;;;;;40.85;14.57;;;-0.70;100.00;;;;;;5025725;28;20303;-75
2024/03/09 00:12:51;;;;;;;41.10;13.32;;;-0.70;100.00;;;;;;5043993;28;20049;-75
2024/03/09 00:15:19;;;;;;;42.13;13.20;;;-0.70;100.00;;;;;;5044152;28;20053;-75
2024/03/09 00:17:48;;;;;;;48.45;15.38;;;-0.70;100.00;;;;;;5026339;28;20076;-75
2024/03/09 00:20:15;;;;;;;43.22;13.75;;;-0.70;100.00;;;;;;5044398;28;20053;-75
2024/03/09 00:22:45;;;;;;;42.08;14.52;;;-0.70;100.00;;;;;;5044550;28;20048;-75
2024/03/09 00:25:13;;;;;;;43.17;15.18;;;-0.70;100.00;;;;;;5026138;28;20095;-75
2024/03/09 00:27:40;;;;;;;45.40;14.50;;;-0.80;100.00;;;;;;5043601;28;20441;-75
2024/03/09 00:30:20;;;;;;;46.67;14.70;;;-0.80;100.00;;;;;;5026558;28;20066;-75
2024/03/09 00:32:53;;;;;;;35.13;13.48;;;-0.80;100.00;;;;;;5043591;28;20122;-76
2024/03/09 00:35:22;;;;;;;42.47;13.98;;;-0.80;100.00;;;;;;5044500;28;20045;-76
2024/03/09 00:37:49;;;;;;;40.38;14.32;;;-0.80;100.00;;;;;;5025493;28;20077;-76
2024/03/09 00:40:17;;;;;;;46.95;14.77;;;-0.80;100.00;;;;;;5048794;28;20083;-75
2024/03/09 00:42:47;;;;;;;48.00;15.55;;;-0.80;100.00;;;;;;5025222;28;20078;-75
2024/03/09 00:45:16;;;;;;;43.47;15.38;;;-0.80;100.00;;;;;;5044230;28;20049;-75
2024/03/09 00:47:46;;;;;;;43.92;15.25;;;-0.80;100.00;;;;;;5043439;28;20144;-75
2024/03/09 00:50:18;;;;;;;47.58;15.43;;;-0.80;100.00;;;;;;5043736;28;20596;-75
2024/03/09 00:52:48;;;;;;;45.85;16.27;;;-0.80;100.00;;;;;;5043123;28;20120;-76
2024/03/09 00:55:15;;;;;;;48.95;15.75;;;-0.80;100.00;;;;;;5043258;28;20045;-75
2024/03/09 00:57:50;;;;;;;43.75;14.35;;;-0.80;100.00;;;;;;5025430;28;20055;-76
2024/03/09 01:00:18;;;;;;;49.92;15.13;;;-0.80;100.00;;;;;;5024744;28;20117;-75
2024/03/09 01:02:49;;;;;;;47.97;14.73;;;-0.70;100.00;;;;;;5024707;28;20051;-75
2024/03/09 01:05:22;;;;;;;42.03;15.07;;;-0.70;100.00;;;;;;5025269;28;20045;-75
2024/03/09 01:07:51;;;;;;;45.40;14.93;;;-0.60;100.00;;;;;;5043459;28;20056;-76
2024/03/09 01:10:18;;;;;;;43.47;14.93;;;-0.60;100.00;;;;;;5024893;28;20826;-75
2024/03/09 01:12:45;;;;;;;44.85;15.15;;;-0.60;100.00;;;;;;5042582;28;20119;-75
2024/03/09 01:15:13;;;;;;;52.38;18.65;;;-0.60;100.00;;;;;;5042413;28;20045;-75
2024/03/09 01:17:40;;;;;;;52.42;17.85;;;-0.50;100.00;;;;;;5042770;28;20076;-76
2024/03/09 01:20:08;;;;;;;48.63;15.77;;;-0.50;100.00;;;;;;5024696;28;20056;-76
2024/03/09 01:22:36;;;;;;;52.45;16.45;;;-0.50;100.00;;;;;;5020907;28;20110;-76
2024/03/09 01:25:05;;;;;;;47.08;16.48;;;-0.60;100.00;;;;;;5025219;28;20055;-75
2024/03/09 01:27:32;;;;;;;48.45;16.52;;;-0.60;100.00;;;;;;5024505;28;20045;-75
2024/03/09 01:29:59;;;;;;;51.30;17.08;;;-0.50;100.00;;;;;;5042888;28;20053;-76
2024/03/09 01:32:28;;;;;;;46.00;16.48;;;-0.50;100.00;;;;;;5041436;28;20073;-76
2024/03/09 01:34:56;;;;;;;47.53;15.95;;;-0.60;100.00;;;;;;5043187;28;20045;-76
2024/03/09 01:37:23;;;;;;;43.55;16.98;;;-0.50;100.00;;;;;;5024503;28;20564;-76
2024/03/09 01:39:51;;;;;;;51.45;16.65;;;-0.50;100.00;;;;;;5030091;28;20049;-76
2024/03/09 01:42:21;;;;;;;68.95;17.55;;;-0.50;100.00;;;;;;5042798;28;20045;-76
2024/03/09 01:44:49;;;;;;;47.00;16.98;;;-0.50;100.00;;;;;;5042309;28;20053;-76
2024/03/09 01:47:19;;;;;;;51.40;17.25;;;-0.50;100.00;;;;;;5042595;28;20049;-75
2024/03/09 01:49:45;;;;;;;51.63;18.40;;;-0.50;100.00;;;;;;5042141;28;20387;-75
2024/03/09 01:52:13;;;;;;;46.08;17.10;;;-0.40;100.00;;;;;;5023869;28;20041;-75
2024/03/09 01:54:42;;;;;;;54.90;17.13;;;-0.40;100.00;;;;;;5024999;28;20052;-75
2024/03/09 01:57:13;;;;;;;52.47;17.73;;;-0.40;100.00;;;;;;5041942;28;20045;-75
2024/03/09 01:59:46;;;;;;;49.97;16.13;;;-0.40;100.00;;;;;;5036003;28;20216;-76
2024/03/09 02:02:15;;;;;;;50.55;17.30;;;-0.40;100.00;;;;;;5041840;28;20473;-75
2024/03/09 02:04:44;;;;;;;54.83;16.85;;;-0.40;100.00;;;;;;5042460;28;20053;-75
2024/03/09 02:07:16;;;;;;;48.85;17.83;;;-0.40;100.00;;;;;;5021004;28;20122;-75
2024/03/09 02:09:44;;;;;;;42.40;16.13;;;-0.40;100.00;;;;;;5041809;28;20128;-75
2024/03/09 02:12:12;;;;;;;51.20;15.68;;;-0.40;100.00;;;;;;5040760;28;20092;-75
2024/03/09 02:14:43;;;;;;;57.63;17.25;;;-0.40;100.00;;;;;;5042035;28;20049;-75
2024/03/09 02:17:11;;;;;;;49.08;16.23;;;-0.40;100.00;;;;;;5023671;28;20045;-75
2024/03/09 02:19:39;;;;;;;57.15;17.85;;;-0.40;100.00;;;;;;5023221;28;20107;-75
2024/03/09 02:22:11;;;;;;;50.08;17.45;;;-0.40;100.00;;;;;;5041454;28;20438;-75
2024/03/09 02:24:43;;;;;;;54.63;18.30;;;-0.40;100.00;;;;;;5041357;28;20049;-75
2024/03/09 02:27:10;;;;;;;52.90;18.52;;;-0.40;100.00;;;;;;5041439;28;20095;-75
2024/03/09 02:29:39;;;;;;;47.17;17.65;;;-0.40;100.00;;;;;;5023566;28;20049;-75
2024/03/09 02:32:06;;;;;;;53.70;17.88;;;-0.40;100.00;;;;;;5021213;28;20099;-75
2024/03/09 02:34:34;;;;;;;61.00;18.55;;;-0.40;100.00;;;;;;5041766;28;20102;-75
2024/03/09 02:37:02;;;;;;;51.47;16.98;;;-0.30;100.00;;;;;;5041568;28;20068;-75
2024/03/09 02:39:30;;;;;;;51.17;17.60;;;-0.40;100.00;;;;;;5046643;28;20049;-75
2024/03/09 02:41:58;;;;;;;51.85;19.27;;;-0.30;100.00;;;;;;5024356;28;20536;-75
2024/03/09 02:44:29;;;;;;;55.25;18.67;;;-0.30;100.00;;;;;;5023620;28;20441;-75
2024/03/09 02:46:56;;;;;;;51.92;17.98;;;-0.40;100.00;;;;;;5039406;28;20099;-75
2024/03/09 02:49:24;;;;;;;55.80;20.42;;;-0.30;100.00;;;;;;5042151;28;20053;-75
2024/03/09 02:51:53;;;;;;;62.65;20.20;;;-0.30;100.00;;;;;;5041383;28;20493;-76
2024/03/09 02:54:20;;;;;;;50.33;17.42;;;-0.30;100.00;;;;;;5041878;28;20365;-75
2024/03/09 02:56:49;;;;;;;55.35;19.20;;;-0.40;100.00;;;;;;5040918;28;20507;-75
2024/03/09 02:59:16;;;;;;;54.50;16.98;;;-0.40;100.00;;;;;;5023481;28;20064;-75
2024/03/09 03:01:43;;;;;;;47.30;16.20;;;-0.40;100.00;;;;;;5022541;28;20052;-76
2024/03/09 03:04:11;;;;;;;58.75;18.00;;;-0.30;100.00;;;;;;5045315;28;20485;-75
2024/03/09 03:06:38;;;;;;;54.42;18.25;;;-0.30;100.00;;;;;;5043895;28;20130;-75
2024/03/09 03:09:11;;;;;;;57.00;19.77;;;-0.30;100.00;;;;;;5027136;28;20053;-75
2024/03/09 03:11:41;;;;;;;48.75;17.25;;;-0.30;100.00;;;;;;5044232;28;20052;-75
2024/03/09 03:14:09;;;;;;;50.15;17.60;;;-0.30;100.00;;;;;;5044789;28;20071;-75
2024/03/09 03:16:36;;;;;;;55.13;18.10;;;-0.30;100.00;;;;;;5045070;28;20072;-75
2024/03/09 03:19:09;;;;;;;66.53;18.95;;;-0.30;100.00;;;;;;5045522;28;20134;-75
2024/03/09 03:21:40;;;;;;;54.60;17.70;;;-0.30;100.00;;;;;;5045757;28;20045;-75
2024/03/09 03:24:09;;;;;;;51.53;17.50;;;-0.30;100.00;;;;;;5026429;28;20088;-75
2024/03/09 03:26:36;;;;;;;50.35;17.73;;;-0.30;100.00;;;;;;5045131;28;20580;-76
2024/03/09 03:29:03;;;;;;;55.97;18.48;;;-0.40;100.00;;;;;;5027310;28;20493;-75
2024/03/09 03:31:31;;;;;;;53.58;18.38;;;-0.30;100.00;;;;;;5044897;28;20064;-75
2024/03/09 03:33:58;;;;;;;57.65;18.65;;;-0.30;100.00;;;;;;5027041;28;20563;-76
2024/03/09 03:36:25;;;;;;;54.13;18.85;;;-0.30;100.00;;;;;;5044552;28;20126;-75
2024/03/09 03:38:54;;;;;;;54.20;18.70;;;-0.30;100.00;;;;;;5026180;28;20037;-75
2024/03/09 03:41:22;;;;;;;57.67;18.73;;;-0.30;100.00;;;;;;5044505;28;20122;-75
2024/03/09 03:43:50;;;;;;;50.85;17.45;;;-0.30;100.00;;;;;;5026222;28;20481;-75
2024/03/09 03:46:17;;;;;;;51.78;18.02;;;-0.30;100.00;;;;;;5045856;28;20041;-75
2024/03/09 03:48:47;;;;;;;56.92;19.35;;;-0.30;100.00;;;;;;5025501;28;20537;-75
2024/03/09 03:51:15;;;;;;;58.17;19.27;;;-0.40;100.00;;;;;;5044137;28;20123;-75
2024/03/09 03:53:44;;;;;;;54.00;17.15;;;-0.40;100.00;;;;;;5043892;28;20364;-75
2024/03/09 03:56:12;;;;;;;56.13;18.35;;;-0.40;100.00;;;;;;5044191;28;20444;-75
2024/03/09 03:58:41;;;;;;;55.35;19.20;;;-0.40;100.00;;;;;;5044326;28;20565;-75
2024/03/09 04:01:08;;;;;;;52.45;18.63;;;-0.40;100.00;;;;;;5023265;28;20049;-75
2024/03/09 04:03:37;;;;;;;51.95;17.83;;;-0.50;100.00;;;;;;5042377;28;20040;-75
2024/03/09 04:06:05;;;;;;;66.70;19.67;;;-0.50;100.00;;;;;;5026487;28;20416;-75
2024/03/09 04:08:32;;;;;;;61.80;18.17;;;-0.50;100.00;;;;;;5025682;28;20501;-75
2024/03/09 04:11:00;;;;;;;50.40;18.83;;;-0.60;100.00;;;;;;5044291;28;20292;-75
2024/03/09 04:13:27;;;;;;;61.60;19.13;;;-0.60;100.00;;;;;;5025617;28;20091;-75
2024/03/09 04:15:55;;;;;;;65.88;17.63;;;-0.60;100.00;;;;;;5044915;28;20090;-75
2024/03/09 04:18:23;;;;;;;55.33;18.77;;;-0.60;100.00;;;;;;5044387;28;20049;-74
2024/03/09 04:20:50;;;;;;;58.03;19.92;;;-0.60;100.00;;;;;;5042929;28;20045;-74
2024/03/09 04:23:17;;;;;;;59.90;20.20;;;-0.70;100.00;;;;;;5026130;28;20053;-75
2024/03/09 04:25:50;;;;;;;55.13;18.35;;;-0.70;100.00;;;;;;5045061;28;20095;-75
2024/03/09 04:28:20;;;;;;;57.42;18.77;;;-0.70;100.00;;;;;;5057111;28;20049;-73
2024/03/09 04:30:50;;;;;;;57.85;19.35;;;-0.70;100.00;;;;;;5043840;28;20106;-74
2024/03/09 04:33:18;;;;;;;65.15;19.90;;;-0.80;100.00;;;;;;5043925;28;20041;-74
2024/03/09 04:35:49;;;;;;;58.67;20.80;;;-0.80;100.00;;;;;;5025516;28;20401;-74
2024/03/09 04:38:16;;;;;;;59.55;19.48;;;-0.80;100.00;;;;;;5040993;28;20064;-74
2024/03/09 04:40:45;;;;;;;52.72;18.63;;;-0.80;100.00;;;;;;5045724;28;20476;-74
2024/03/09 04:43:13;;;;;;;53.15;19.25;;;-0.80;100.00;;;;;;5025109;28;20075;-74
2024/03/09 04:45:40;;;;;;;63.65;19.83;;;-0.80;100.00;;;;;;5025214;28;20497;-74
2024/03/09 04:48:09;;;;;;;64.35;21.10;;;-0.90;100.00;;;;;;5025555;28;20084;-75
2024/03/09 04:50:38;;;;;;;59.13;19.85;;;-0.90;100.00;;;;;;5025019;28;20052;-74
2024/03/09 04:53:06;;;;;;;50.75;16.38;;;-0.90;100.00;;;;;;5043220;28;20156;-74
2024/03/09 04:55:35;;;;;;;56.33;18.98;;;-0.90;100.00;;;;;;5022729;28;20550;-74
2024/03/09 04:58:13;;;;;;;58.95;20.02;;;-0.90;100.00;;;;;;5021950;28;20056;-74
2024/03/09 05:00:42;;;;;;;62.95;19.25;;;-1.00;100.00;;;;;;5021793;28;20051;-74
2024/03/09 05:03:12;;;;;;;49.88;18.80;;;-1.00;100.00;;;;;;5022293;28;20096;-74
2024/03/09 05:05:40;;;;;;;66.20;19.35;;;-1.00;100.00;;;;;;5019393;28;20056;-74
2024/03/09 05:08:08;;;;;;;66.15;18.92;;;-1.00;100.00;;;;;;5039019;28;20554;-74
2024/03/09 05:10:36;;;;;;;60.05;18.20;;;-1.00;100.00;;;;;;5037872;28;20044;-73
2024/03/09 05:13:06;;;;;;;59.72;19.70;;;-1.00;100.00;;;;;;5038755;28;20484;-74
2024/03/09 05:15:33;;;;;;;57.08;19.05;;;-1.00;100.00;;;;;;5039819;28;20105;-74
2024/03/09 05:18:02;;;;;;;57.05;20.98;;;-1.00;100.00;;;;;;5040913;28;20045;-74
2024/03/09 05:20:30;;;;;;;53.03;18.50;;;-1.00;100.00;;;;;;5024083;28;20045;-74
2024/03/09 05:23:03;;;;;;;59.85;19.58;;;-1.00;100.00;;;;;;5042024;28;20140;-74
2024/03/09 05:25:30;;;;;;;56.70;19.13;;;-1.10;100.00;;;;;;5043113;28;20355;-74
2024/03/09 05:27:58;;;;;;;59.40;20.27;;;-1.10;100.00;;;;;;5024072;28;20135;-74
2024/03/09 05:30:28;;;;;;;57.70;20.25;;;-1.10;100.00;;;;;;5024346;28;20144;-74
2024/03/09 05:33:06;;;;;;;61.92;18.95;;;-1.10;100.00;;;;;;5030669;28;20377;-74
2024/03/09 05:35:34;;;;;;;59.33;19.60;;;-1.10;100.00;;;;;;5042826;28;20521;-74
2024/03/09 05:38:05;;;;;;;61.20;19.52;;;-1.10;100.00;;;;;;5042985;28;20048;-74
2024/03/09 05:40:33;;;;;;;57.00;20.63;;;-1.10;100.00;;;;;;5026230;28;20064;-74
2024/03/09 05:43:11;;;;;;;64.57;19.38;;;-1.10;100.00;;;;;;5042715;28;20051;-74
2024/03/09 05:45:39;;;;;;;58.08;18.85;;;-1.10;100.00;;;;;;5024905;28;20049;-74
2024/03/09 05:48:08;;;;;;;57.00;19.60;;;-1.10;100.00;;;;;;5024453;28;20130;-74
2024/03/09 05:50:37;;;;;;;53.45;19.40;;;-1.10;100.00;;;;;;5041242;28;20112;-74
2024/03/09 05:53:04;;;;;;;74.10;21.33;;;-1.10;100.00;;;;;;5024109;28;20397;-74
2024/03/09 05:55:32;;;;;;;61.13;19.33;;;-1.10;100.00;;;;;;5041266;28;20404;-74
2024/03/09 05:57:59;;;;;;;64.78;20.65;;;-1.10;100.00;;;;;;5023453;28;20128;-74
2024/03/09 06:00:28;;;;;;;52.20;19.98;;;-1.10;100.00;;;;;;5041667;28;20045;-74
2024/03/09 06:02:58;;;;;;;64.15;20.85;;;-1.10;100.00;;;;;;5040409;28;20074;-74
2024/03/09 06:05:28;;;;;;;55.97;19.65;;;-1.20;100.00;;;;;;5023784;28;20060;-74
2024/03/09 06:07:57;;;;;;;63.25;19.30;;;-1.10;100.00;;;;;;5024829;28;20102;-74
2024/03/09 06:10:24;;;;;;;70.22;22.02;;;-1.20;100.00;;;;;;5041641;28;20079;-73
2024/03/09 06:12:52;;;;;;;57.35;20.23;;;-1.20;100.00;;;;;;5042308;28;20056;-74
2024/03/09 06:15:25;;;;;;;74.47;22.80;;;-1.20;100.00;;;;;;5022907;28;20067;-79
2024/03/09 06:17:55;;;;;;;62.80;20.40;;;-1.10;100.00;;;;;;5043756;28;20053;-72
2024/03/09 06:20:26;;;;;;;61.78;19.83;;;-1.10;100.00;;;;;;5024684;28;20056;-74
2024/03/09 06:22:56;;;;;;;52.85;19.15;;;-1.10;100.00;;;;;;5024012;28;20060;-74
2024/03/09 06:25:25;;;;;;;65.40;21.95;;;-1.10;100.00;;;;;;5041751;28;20052;-72
2024/03/09 06:27:53;;;;;;;71.00;22.27;;;-1.00;100.00;;;;;;5031475;28;20197;-69
2024/03/09 06:30:23;;;;;;;62.20;22.42;;;-1.00;100.00;;;;;;5032705;28;20064;-70
2024/03/09 06:32:58;;;;;;;67.88;20.88;;;-0.90;100.00;;;;;;5028743;28;20045;-70
2024/03/09 06:35:25;;;;;;;66.43;22.73;;;-0.90;100.00;;;;;;5030193;28;20056;-71
2024/03/09 06:38:01;;;;;;;69.38;23.05;;;-0.80;100.00;;;;;;5035448;28;20044;-71
2024/03/09 06:40:30;;;;;;;62.38;21.63;;;-0.70;100.00;;;;;;5039614;28;20053;-71
2024/03/09 06:43:03;;;;;;;77.05;25.35;;;-0.60;100.00;;;;;;5042555;28;20049;-71
2024/03/09 06:45:30;;;;;;;78.75;24.42;;;-0.50;100.00;;;;;;5042967;28;20552;-71
2024/03/09 06:47:57;;;;;;;73.03;22.73;;;-0.30;100.00;;;;;;5044133;28;20127;-71
2024/03/09 06:50:31;;;;;;;71.45;23.10;;;-0.20;100.00;;;;;;5044416;28;20107;-71
2024/03/09 06:52:58;;;;;;;58.10;22.25;;;-0.10;100.00;;;;;;5044073;28;20569;-71
2024/03/09 06:55:26;;;;;;;79.60;24.25;;;0.00;100.00;;;;;;5026632;28;20051;-71
2024/03/09 06:57:54;;;;;;;75.78;23.33;;;0.00;100.00;;;;;;5028036;28;20056;-71
2024/03/09 07:00:22;;;;;;;72.68;25.08;;;0.10;100.00;;;;;;5046024;28;20044;-71
2024/03/09 07:02:49;;;;;;;80.28;26.60;;;0.20;100.00;;;;;;5026112;28;20107;-71
2024/03/09 07:05:17;;;;;;;84.07;25.52;;;0.30;100.00;;;;;;5026970;28;20470;-71
2024/03/09 07:07:44;;;;;;;72.55;25.00;;;0.50;100.00;;;;;;5027511;28;20048;-71
2024/03/09 07:10:14;;;;;;;73.38;24.52;;;0.60;100.00;;;;;;5046302;28;20168;-71
2024/03/09 07:12:41;;;;;;;70.63;24.67;;;0.70;100.00;;;;;;5045577;28;20119;-70
2024/03/09 07:15:15;;;;;;;72.95;23.70;;;0.90;100.00;;;;;;5045862;28;20557;-71
2024/03/09 07:17:43;;;;;;;78.95;26.50;;;1.10;100.00;;;;;;5045197;28;20544;-71
2024/03/09 07:20:16;;;;;;;70.40;23.65;;;1.20;100.00;;;;;;5045746;28;20045;-70
2024/03/09 07:22:49;;;;;;;76.03;25.98;;;1.40;100.00;;;;;;5043546;28;20052;-71
2024/03/09 07:25:24;;;;;;;71.50;24.05;;;1.50;100.00;;;;;;5044001;28;20126;-71
2024/03/09 07:27:56;;;;;;;75.45;25.98;;;1.70;100.00;;;;;;5045157;28;20045;-70
2024/03/09 07:30:24;;;;;;;71.60;24.85;;;1.80;100.00;;;;;;5045379;28;20077;-70
2024/03/09 07:32:53;;;;;;;76.85;26.83;;;2.00;100.00;;;;;;5044885;28;20170;-70
2024/03/09 07:35:27;;;;;;;67.43;24.02;;;2.10;100.00;;;;;;5027929;28;20278;-71
2024/03/09 07:37:55;;;;;;;74.50;24.48;;;2.20;100.00;;;;;;5027430;28;20053;-71
2024/03/09 07:40:26;;;;;;;70.95;25.80;;;2.30;100.00;;;;;;5051097;28;20445;-71
2024/03/09 07:42:53;;;;;;;66.43;23.58;;;2.40;100.00;;;;;;5045087;28;20190;-71
2024/03/09 07:45:23;;;;;;;64.32;24.35;;;2.50;100.00;;;;;;5044695;28;20051;-71
2024/03/09 07:47:50;;;;;;;72.95;23.98;;;2.70;100.00;;;;;;5027278;28;20051;-69
2024/03/09 07:50:21;;;;;;;66.40;23.38;;;2.80;100.00;;;;;;5043784;28;20485;-71
2024/03/09 07:52:50;;;;;;;68.03;24.83;;;3.00;100.00;;;;;;5027112;28;20059;-71
2024/03/09 07:55:22;;;;;;;72.22;26.02;;;3.20;100.00;;;;;;5044626;28;20044;-70
2024/03/09 07:57:52;;;;;;;69.32;24.55;;;3.30;100.00;;;;;;5024570;28;20466;-71
2024/03/09 08:00:27;;;;;;;;;;;3.50;100.00;;;;;;5045200;28;20493;-71
2024/03/09 08:02:55;;;;;;;73.97;25.20;;;3.60;100.00;;;;;;5044803;28;19937;-71
2024/03/09 08:05:24;;;;;;;67.88;23.75;;;3.80;100.00;;;;;;5044215;28;20505;-71
2024/03/09 08:07:52;;;;;;;74.95;26.08;;;4.00;100.00;;;;;;5042046;28;20059;-71
2024/03/09 08:10:24;;;;;;;70.80;26.80;;;4.40;100.00;;;;;;5026354;28;20055;-71
2024/03/09 08:13:01;;;;;;;73.32;26.23;;;4.80;100.00;;;;;;5042007;28;20045;-71
2024/03/09 08:15:28;;;;;;;65.20;25.23;;;5.40;100.00;;;;;;5043122;28;20103;-73
2024/03/09 08:17:56;;;;;;;71.63;25.20;;;6.00;100.00;;;;;;5023101;28;20045;-74
2024/03/09 08:20:24;;;;;;;69.47;25.90;;;6.70;100.00;;;;;;5045526;28;20049;-72
2024/03/09 08:22:51;;;;;;;72.47;26.25;;;7.30;100.00;;;;;;5044083;28;20134;-73
2024/03/09 08:25:18;;;;;;;72.47;26.00;;;7.30;100.00;;;;;;5027121;28;20157;-71
2024/03/09 08:27:47;;;;;;;73.65;27.00;;;7.30;100.00;;;;;;5045334;28;20499;-71
2024/03/09 08:30:15;;;;;;;73.25;26.40;;;7.30;100.00;;;;;;5042699;28;20460;-71
2024/03/09 08:32:44;;;;;;;71.55;27.00;;;7.50;100.00;;;;;;5044490;28;20044;-71
2024/03/09 08:35:14;;;;;;;70.82;25.70;;;7.60;100.00;;;;;;5027631;28;20037;-71
2024/03/09 08:37:43;;;;;;;77.20;28.67;;;7.50;100.00;;;;;;5045187;28;20049;-72
2024/03/09 08:40:16;;;;;;;72.68;27.65;;;7.50;100.00;;;;;;5045826;28;20057;-70
2024/03/09 08:42:48;;;;;;;72.65;27.90;;;7.50;100.00;;;;;;5027228;28;20136;-76
2024/03/09 08:45:15;;;;;;;73.45;27.38;;;7.30;100.00;;;;;;5025737;28;20052;-70
2024/03/09 08:47:43;;;;;;;76.72;28.27;;;7.00;100.00;;;;;;5043398;28;20556;-70
2024/03/09 08:50:10;;;;;;;68.75;26.75;;;6.80;100.00;;;;;;5045283;28;20045;-70
2024/03/09 08:52:40;;;;;;;74.38;28.15;;;6.60;100.00;;;;;;5044062;28;20356;-72
2024/03/09 08:55:13;;;;;;;75.22;27.13;;;6.40;100.00;;;;;;5046015;28;20484;-70
2024/03/09 08:57:46;;;;;;;68.55;26.73;;;6.40;100.00;;;;;;5044545;28;20741;-73
2024/03/09 09:00:15;;;;;;;70.93;26.48;;;6.20;100.00;;;;;;5044161;28;20437;-73
2024/03/09 09:02:42;;;;;;;75.72;28.83;;;6.40;100.00;;;;;;5037752;28;20103;-71
2024/03/09 09:05:12;;;;;;;71.40;27.08;;;6.60;100.00;;;;;;5027246;28;20045;-71
2024/03/09 09:07:40;;;;;;;93.88;30.00;;;6.60;100.00;;;;;;5025603;28;20128;-70
2024/03/09 09:10:11;;;;;;;86.18;28.77;;;6.70;100.00;;;;;;5044370;28;20497;-75
2024/03/09 09:12:42;;;;;;;68.90;27.90;;;7.00;100.00;;;;;;5042169;28;20052;-73
2024/03/09 09:15:16;;;;;;;70.32;26.63;;;7.20;100.00;;;;;;5043944;28;20460;-74
2024/03/09 09:17:43;;;;;;;72.13;25.98;;;7.40;100.00;;;;;;5041370;28;20056;-74
2024/03/09 09:20:12;;;;;;;63.60;26.25;;;7.50;100.00;;;;;;5044703;28;20055;-73
2024/03/09 09:22:48;;;;;;;68.85;27.30;;;7.40;100.00;;;;;;5025240;28;20065;-73
2024/03/09 09:25:19;;;;;;;63.03;25.23;;;7.70;100.00;;;;;;5041464;28;20052;-74
2024/03/09 09:27:46;;;;;;;63.45;25.83;;;7.80;100.00;;;;;;5024839;28;20159;-73
2024/03/09 09:30:13;;;;;;;61.85;26.35;;;8.00;100.00;;;;;;5022678;28;20048;-73
2024/03/09 09:32:40;;;;;;;61.58;24.75;;;8.10;100.00;;;;;;5044417;28;20133;-72
2024/03/09 09:35:09;;;;;;;64.75;24.73;;;8.20;100.00;;;;;;5026881;28;20049;-72
2024/03/09 09:37:36;;;;;;;62.88;25.55;;;8.40;100.00;;;;;;5044210;28;20059;-73
2024/03/09 09:40:06;;;;;;;66.45;26.60;;;8.60;100.00;;;;;;5039699;28;20052;-73
2024/03/09 09:42:35;;;;;;;71.38;25.77;;;8.70;100.00;;;;;;5043832;28;20048;-70
2024/03/09 09:45:03;;;;;;;64.78;26.15;;;8.90;100.00;;;;;;5043697;28;20044;-71
2024/03/09 09:47:30;;;;;;;59.30;25.55;;;9.00;100.00;;;;;;5044628;28;20048;-72
2024/03/09 09:49:59;;;;;;;62.00;25.70;;;9.10;100.00;;;;;;5042988;28;20470;-70
2024/03/09 09:52:28;;;;;;;70.45;26.48;;;9.30;100.00;;;;;;5041737;28;20051;-71
2024/03/09 09:54:58;;;;;;;65.95;26.05;;;9.70;100.00;;;;;;5043786;28;20053;-71
2024/03/09 09:57:30;;;;;;;67.03;28.00;;;10.00;100.00;;;;;;5026509;28;20055;-71
2024/03/09 09:59:58;;;;;;;61.38;26.85;;;10.10;100.00;;;;;;5026122;28;20045;-71
2024/03/09 10:02:25;;;;;;;67.60;29.45;;;10.60;100.00;;;;;;5042720;28;20041;-71
2024/03/09 10:04:54;;;;;;;56.42;25.63;;;11.10;100.00;;;;;;5041867;28;20385;-71
2024/03/09 10:07:21;;;;;;;61.03;25.58;;;11.60;100.00;;;;;;5024779;28;20052;-71
2024/03/09 10:09:49;;;;;;;60.13;25.08;;;12.00;100.00;;;;;;5042757;28;20048;-71
2024/03/09 10:12:22;;;;;;;67.43;26.75;;;12.40;100.00;;;;;;5041533;28;20097;-71
2024/03/09 10:14:51;;;;;;;59.13;24.98;;;12.70;100.00;;;;;;5041906;28;20136;-71
2024/03/09 10:17:19;;;;;;;64.63;26.98;;;13.50;100.00;;;;;;5027763;28;20044;-71
2024/03/09 10:19:51;;;;;;;58.97;27.00;;;13.80;100.00;;;;;;5042013;28;20106;-71
2024/03/09 10:22:19;;;;;;;57.42;27.13;;;13.60;100.00;;;;;;5026040;28;20063;-72
2024/03/09 10:24:53;;;;;;;56.25;26.05;;;13.60;100.00;;;;;;5043962;28;20053;-71
2024/03/09 10:27:25;;;;;;;63.92;25.83;;;13.10;100.00;;;;;;5043684;28;20049;-71
2024/03/09 10:30:10;;;;;;;59.80;26.15;;;13.30;100.00;;;;;;5042787;28;20060;-71
2024/03/09 10:32:41;;;;;;;;;;;12.80;100.00;;;;;;5044329;28;20502;-72
2024/03/09 10:35:10;;;;;;;65.97;25.90;;;12.60;100.00;;;;;;5059223;28;19928;-72
2024/03/09 10:37:40;;;;;;;66.95;27.95;;;13.00;100.00;;;;;;5025919;28;20056;-72
2024/03/09 10:40:12;;;;;;;56.75;26.55;;;13.40;100.00;;;;;;5049780;28;20045;-71
2024/03/09 10:42:49;;;;;;;66.05;27.52;;;13.60;100.00;;;;;;5042891;28;20049;-70
2024/03/09 10:45:18;;;;;;;53.05;26.85;;;13.60;100.00;;;;;;5025753;28;20056;-70
2024/03/09 10:47:52;;;;;;;66.63;28.08;;;13.40;100.00;;;;;;5026698;28;20497;-69
2024/03/09 10:50:27;;;;;;;57.00;26.60;;;13.40;100.00;;;;;;5042552;28;20084;-69
2024/03/09 10:53:09;;;;;;;59.80;29.00;;;13.30;100.00;;;;;;5042009;28;20098;-71
2024/03/09 10:55:54;;;;;;;62.97;27.95;;;13.40;100.00;;;;;;5041486;28;20076;-72
2024/03/09 10:58:26;;;;;;;58.78;28.33;;;13.20;100.00;;;;;;5042789;28;20045;-70
2024/03/09 11:00:54;;;;;;;56.78;28.08;;;12.70;100.00;;;;;;5025568;28;20783;-70
2024/03/09 11:03:23;;;;;;;59.90;28.42;;;13.10;100.00;;;;;;5042803;28;20273;-70
2024/03/09 11:05:55;;;;;;;60.70;28.35;;;13.00;100.00;;;;;;5024401;28;20048;-71
2024/03/09 11:08:23;;;;;;;62.85;27.00;;;12.70;100.00;;;;;;5023491;28;20051;-71
2024/03/09 11:10:51;;;;;;;59.83;27.60;;;12.50;100.00;;;;;;5041898;28;20489;-72
2024/03/09 11:13:19;;;;;;;56.63;26.45;;;12.90;100.00;;;;;;5045492;28;20529;-71
2024/03/09 11:15:51;;;;;;;63.83;29.35;;;13.40;100.00;;;;;;5024059;28;20500;-72
2024/03/09 11:18:21;;;;;;;55.75;26.65;;;13.50;100.00;;;;;;5054888;28;20041;-72
2024/03/09 11:20:59;;;;;;;51.35;24.88;;;13.80;100.00;;;;;;5025635;28;20076;-72
2024/03/09 11:23:32;;;;;;;51.03;24.98;;;13.60;100.00;;;;;;5045222;28;20122;-72
2024/03/09 11:26:00;;;;;;;49.58;23.15;;;13.30;100.00;;;;;;5046215;28;20068;-72
2024/03/09 11:28:47;;;;;;;54.08;25.33;;;13.00;100.00;;;;;;5027435;28;20464;-72
2024/03/09 11:31:16;;;;;;;54.88;24.83;;;13.00;100.00;;;;;;5027362;28;20049;-72
2024/03/09 11:33:44;;;;;;;50.13;22.73;;;13.10;100.00;;;;;;5044978;28;20668;-72
2024/03/09 11:36:39;;;;;;;53.55;24.77;;;13.10;100.00;;;;;;5026850;28;20488;-70
2024/03/09 11:39:07;;;;;;;53.03;23.75;;;13.50;100.00;;;;;;5050282;28;20725;-72
2024/03/09 11:41:38;;;;;;;48.10;23.33;;;13.60;100.00;;;;;;5046513;28;20103;-72
2024/03/09 11:44:05;;;;;;;49.85;23.80;;;13.30;100.00;;;;;;5045893;28;20053;-73
2024/03/09 11:46:36;;;;;;;52.30;25.05;;;13.40;100.00;;;;;;5028855;28;20045;-73
2024/03/09 11:49:03;;;;;;;55.33;23.90;;;13.50;100.00;;;;;;5046455;28;20131;-73
2024/03/09 11:51:34;;;;;;;54.33;24.27;;;13.60;100.00;;;;;;5046367;28;20057;-73
2024/03/09 11:54:06;;;;;;;50.53;22.67;;;14.20;100.00;;;;;;5041307;28;20085;-73
2024/03/09 11:56:34;;;;;;;52.55;23.83;;;14.70;89.60;;;;;;5046322;28;20775;-73
2024/03/09 11:59:02;;;;;;;57.50;25.35;;;14.50;95.80;;;;;;5046667;28;20049;-73
2024/03/09 12:01:29;;;;;;;51.95;24.98;;;14.70;87.50;;;;;;5045785;28;20052;-72
2024/03/09 12:03:59;;;;;;;53.55;24.80;;;14.80;81.00;;;;;;5028115;28;20057;-73
2024/03/09 12:06:28;;;;;;;52.67;24.95;;;14.20;84.50;;;;;;5045731;28;20561;-73
2024/03/09 12:08:55;;;;;;;53.33;24.58;;;14.40;86.30;;;;;;5046490;28;20123;-74
2024/03/09 12:11:23;;;;;;;51.75;23.55;;;14.80;84.10;;;;;;5044486;28;20520;-74
2024/03/09 12:13:50;;;;;;;48.40;23.27;;;15.60;76.40;;;;;;5045786;28;20138;-74
2024/03/09 12:16:18;;;;;;;56.25;25.00;;;16.10;75.20;;;;;;5046218;28;20052;-74
2024/03/09 12:18:47;;;;;;;53.40;24.83;;;16.50;58.50;;;;;;5045854;28;20056;-74
2024/03/09 12:21:16;;;;;;;55.40;24.98;;;15.60;56.10;;;;;;5045648;28;20098;-74
2024/03/09 12:24:00;;;;;;;53.63;25.40;;;14.60;57.10;;;;;;5039982;28;20051;-74
2024/03/09 12:26:28;;;;;;;55.40;24.42;;;13.40;60.20;;;;;;5044063;28;20049;-74
2024/03/09 12:29:04;;;;;;;57.67;24.75;;;12.50;65.20;;;;;;5046216;28;20052;-74
2024/03/09 12:31:33;;;;;;;52.83;23.70;;;11.80;67.70;;;;;;5045441;28;20087;-74